Time;durP1;ratioP1;P1;durP2;ratioP2;P2;SDS_P1;SDS_P2;PMS_P1;PMS_P2;Temp;Humidity;BMP_temperature;BMP_pressure;BME280_temperature;BME280_humidity;BME280_pressure;Samples;Min_cycle;Max_cycle;Signal;HPM_P1;HPM_P2
2023/09/01 00:00:50;;;;;;;3.60;2.60;;;18.20;92.90;;;;;;10490019;28;21444;-63
2023/09/01 00:05:50;;;;;;;4.38;2.60;;;18.20;92.90;;;;;;10482810;28;20494;-63
2023/09/01 00:10:51;;;;;;;4.40;2.80;;;18.20;92.90;;;;;;10484648;28;20390;-62
2023/09/01 00:15:52;;;;;;;3.97;2.87;;;18.10;92.90;;;;;;10483399;28;20410;-62
2023/09/01 00:20:59;;;;;;;3.87;2.73;;;18.10;92.90;;;;;;10483328;28;20489;-64
2023/09/01 00:26:01;;;;;;;3.65;3.08;;;18.10;92.90;;;;;;10483152;28;20483;-63
2023/09/01 00:31:02;;;;;;;4.40;2.80;;;18.10;92.90;;;;;;10486380;28;20412;-63
2023/09/01 00:36:03;;;;;;;4.60;2.97;;;18.10;92.90;;;;;;10481673;28;20883;-64
2023/09/01 00:41:04;;;;;;;4.22;2.97;;;18.10;92.90;;;;;;10486219;28;20496;-63
2023/09/01 00:46:04;;;;;;;5.53;3.43;;;18.00;92.90;;;;;;10489204;28;20410;-63
2023/09/01 00:51:06;;;;;;;5.20;3.33;;;18.00;92.90;;;;;;10486163;28;20636;-63
2023/09/01 00:56:07;;;;;;;3.60;3.10;;;18.00;92.90;;;;;;10489765;28;20469;-63
2023/09/01 01:01:08;;;;;;;4.93;3.50;;;18.00;92.90;;;;;;10480236;28;20447;-63
2023/09/01 01:06:35;;;;;;;4.00;3.10;;;18.00;92.90;;;;;;10483139;28;20399;-63
2023/09/01 01:11:43;;;;;;;4.73;3.60;;;18.00;92.90;;;;;;10473378;28;20928;-63
2023/09/01 01:16:44;;;;;;;6.43;3.58;;;17.90;92.90;;;;;;10478180;28;20420;-63
2023/09/01 01:21:50;;;;;;;5.50;3.40;;;17.90;92.90;;;;;;10490427;28;20387;-63
2023/09/01 01:26:51;;;;;;;5.13;3.53;;;17.90;92.90;;;;;;10482547;28;20433;-63
2023/09/01 01:31:53;;;;;;;4.67;3.17;;;17.90;92.90;;;;;;10486635;28;20500;-63
2023/09/01 01:37:07;;;;;;;4.63;3.65;;;17.90;92.90;;;;;;10483353;28;20407;-64
2023/09/01 01:42:10;;;;;;;5.65;3.55;;;17.90;92.90;;;;;;10487267;28;20434;-62
2023/09/01 01:47:12;;;;;;;5.03;3.30;;;17.90;92.90;;;;;;10487173;28;20732;-63
2023/09/01 01:52:13;;;;;;;5.72;3.30;;;17.90;92.90;;;;;;10489869;28;20395;-63
2023/09/01 01:57:14;;;;;;;4.63;3.50;;;17.90;92.90;;;;;;10481147;28;20468;-64
2023/09/01 02:02:15;;;;;;;3.40;3.05;;;17.80;92.90;;;;;;10485895;28;20399;-63
2023/09/01 02:07:15;;;;;;;3.63;3.07;;;17.80;92.90;;;;;;10485626;28;20403;-63
2023/09/01 02:12:16;;;;;;;4.57;3.37;;;17.80;92.90;;;;;;10487508;28;20494;-64
2023/09/01 02:17:17;;;;;;;6.13;3.73;;;17.80;92.90;;;;;;10486106;28;20911;-64
2023/09/01 02:22:17;;;;;;;4.07;3.38;;;17.80;92.90;;;;;;10493829;28;20399;-61
2023/09/01 02:27:18;;;;;;;4.40;3.30;;;17.80;92.90;;;;;;10492112;28;20403;-63
2023/09/01 02:32:18;;;;;;;3.50;3.03;;;17.80;92.90;;;;;;10497179;28;20411;-62
2023/09/01 02:37:19;;;;;;;4.40;3.10;;;17.70;92.90;;;;;;10498720;28;20452;-63
2023/09/01 02:42:20;;;;;;;3.80;3.20;;;17.70;92.90;;;;;;10492595;28;20394;-64
2023/09/01 02:47:20;;;;;;;4.10;3.00;;;17.70;92.90;;;;;;10497549;28;20759;-62
2023/09/01 02:52:21;;;;;;;4.10;3.20;;;17.70;92.90;;;;;;10500501;28;20395;-63
2023/09/01 02:57:22;;;;;;;6.20;3.07;;;17.70;92.90;;;;;;10496481;28;20443;-63
2023/09/01 03:02:23;;;;;;;4.03;3.08;;;17.70;92.90;;;;;;10495093;28;20404;-62
2023/09/01 03:07:27;;;;;;;5.20;3.15;;;17.70;92.90;;;;;;10501830;28;20486;-62
2023/09/01 03:12:27;;;;;;;5.90;2.97;;;17.70;92.90;;;;;;10491272;28;20479;-62
2023/09/01 03:17:28;;;;;;;3.97;2.80;;;17.60;92.80;;;;;;10495809;28;20791;-63
2023/09/01 03:22:29;;;;;;;5.22;2.75;;;17.60;92.90;;;;;;10494500;28;20440;-61
2023/09/01 03:27:30;;;;;;;4.20;2.90;;;17.20;92.70;;;;;;10492258;28;20399;-63
2023/09/01 03:32:30;;;;;;;4.00;2.80;;;17.60;92.80;;;;;;10493623;28;20533;-62
2023/09/01 03:37:32;;;;;;;3.58;2.53;;;17.60;92.80;;;;;;10500260;28;20398;-62
2023/09/01 03:42:32;;;;;;;3.35;2.63;;;17.60;92.80;;;;;;10493104;28;20550;-62
2023/09/01 03:47:33;;;;;;;3.20;2.50;;;17.50;92.80;;;;;;10495791;28;20813;-64
2023/09/01 03:52:34;;;;;;;4.10;2.60;;;17.50;92.80;;;;;;10494560;28;20533;-63
2023/09/01 03:57:34;;;;;;;3.47;2.70;;;17.50;92.70;;;;;;10490903;28;20407;-61
2023/09/01 04:02:35;;;;;;;3.87;2.70;;;17.50;92.70;;;;;;10495697;28;20448;-62
2023/09/01 04:07:36;;;;;;;3.90;2.53;;;17.50;92.70;;;;;;10498482;28;20402;-64
2023/09/01 04:12:36;;;;;;;3.07;2.60;;;17.50;92.70;;;;;;10495410;28;20441;-63
2023/09/01 04:17:37;;;;;;;4.10;2.53;;;17.50;92.70;;;;;;10496085;28;20784;-63
2023/09/01 04:22:37;;;;;;;4.00;2.63;;;17.40;92.70;;;;;;10498959;28;20399;-64
2023/09/01 04:27:38;;;;;;;2.83;2.38;;;17.60;92.70;;;;;;10495667;28;20402;-60
2023/09/01 04:32:40;;;;;;;4.40;2.70;;;17.50;92.70;;;;;;10500108;28;20403;-63
2023/09/01 04:37:41;;;;;;;3.75;2.65;;;17.40;92.70;;;;;;10494290;28;20751;-63
2023/09/01 04:42:42;;;;;;;3.20;2.30;;;17.40;92.70;;;;;;10493292;28;20763;-61
2023/09/01 04:47:42;;;;;;;3.10;2.50;;;17.40;92.70;;;;;;10497974;28;20589;-63
2023/09/01 04:52:43;;;;;;;3.92;2.50;;;17.40;92.70;;;;;;10497739;28;20447;-63
2023/09/01 04:57:44;;;;;;;3.40;2.25;;;17.40;92.70;;;;;;10487112;28;20492;-63
2023/09/01 05:02:45;;;;;;;4.23;2.60;;;17.30;92.60;;;;;;10479394;28;20431;-64
2023/09/01 05:07:46;;;;;;;4.10;2.67;;;17.30;92.60;;;;;;10481934;28;20395;-62
2023/09/01 05:12:46;;;;;;;3.90;2.30;;;17.30;92.60;;;;;;10476065;28;20410;-63
2023/09/01 05:17:47;;;;;;;3.85;2.78;;;17.30;92.60;;;;;;10489155;28;20667;-63
2023/09/01 05:22:48;;;;;;;3.90;2.67;;;17.30;92.60;;;;;;10479524;28;20473;-63
2023/09/01 05:27:48;;;;;;;3.40;2.30;;;17.30;92.70;;;;;;10487572;28;20399;-62
2023/09/01 05:32:49;;;;;;;3.73;2.60;;;17.30;92.70;;;;;;10482323;28;20498;-62
2023/09/01 05:37:49;;;;;;;5.10;2.70;;;17.30;92.70;;;;;;10494184;28;20404;-63
2023/09/01 05:42:50;;;;;;;4.20;2.67;;;17.30;92.70;;;;;;10485916;28;20397;-63
2023/09/01 05:47:51;;;;;;;3.00;2.58;;;17.30;92.70;;;;;;10484390;28;20769;-61
2023/09/01 05:52:51;;;;;;;2.83;2.53;;;17.30;92.70;;;;;;10501208;28;20461;-62
2023/09/01 05:57:52;;;;;;;4.33;2.77;;;17.30;92.70;;;;;;10491855;28;20802;-63
2023/09/01 06:02:52;;;;;;;3.20;2.80;;;17.30;92.70;;;;;;10477311;28;20412;-62
2023/09/01 06:07:53;;;;;;;3.67;3.03;;;17.30;92.70;;;;;;10495691;28;20957;-63
2023/09/01 06:12:54;;;;;;;4.15;3.00;;;17.30;92.80;;;;;;10487622;28;20398;-62
2023/09/01 06:17:54;;;;;;;4.28;3.10;;;17.30;92.80;;;;;;10493178;28;20972;-63
2023/09/01 06:22:55;;;;;;;3.47;3.00;;;17.30;92.80;;;;;;10492057;28;20397;-64
2023/09/01 06:27:56;;;;;;;4.43;3.20;;;17.30;92.80;;;;;;10488430;28;20423;-63
2023/09/01 06:32:57;;;;;;;4.93;3.23;;;17.30;92.80;;;;;;10498581;28;20436;-63
2023/09/01 06:37:58;;;;;;;4.33;3.10;;;17.30;92.80;;;;;;10495355;28;20983;-63
2023/09/01 06:42:58;;;;;;;4.22;3.00;;;17.40;92.90;;;;;;10497127;28;20441;-63
2023/09/01 06:47:59;;;;;;;4.57;3.30;;;17.40;92.90;;;;;;10494795;28;20387;-63
2023/09/01 06:52:59;;;;;;;5.23;3.47;;;17.40;92.90;;;;;;10491497;28;20899;-64
2023/09/01 06:58:00;;;;;;;3.87;3.17;;;17.80;93.00;;;;;;10493846;28;20415;-63
2023/09/01 07:03:01;;;;;;;5.20;3.30;;;17.30;92.90;;;;;;10498278;28;20406;-63
2023/09/01 07:08:01;;;;;;;4.43;3.53;;;17.40;92.90;;;;;;10496558;28;20396;-64
2023/09/01 07:13:02;;;;;;;4.20;3.10;;;17.40;92.90;;;;;;10488743;28;20392;-63
2023/09/01 07:18:03;;;;;;;5.43;3.37;;;17.40;92.90;;;;;;10482753;28;20415;-62
2023/09/01 07:23:04;;;;;;;4.82;3.33;;;17.40;92.90;;;;;;10498546;28;20981;-63
2023/09/01 07:28:04;;;;;;;4.80;3.33;;;17.50;93.00;;;;;;10494124;28;20387;-63
2023/09/01 07:33:05;;;;;;;4.87;3.20;;;17.50;93.00;;;;;;10502299;28;20404;-63
2023/09/01 07:38:06;;;;;;;4.28;3.30;;;17.50;93.00;;;;;;10502667;28;20398;-63
2023/09/01 07:43:11;;;;;;;5.35;3.47;;;17.50;93.00;;;;;;10487521;28;20761;-63
2023/09/01 07:48:11;;;;;;;5.90;3.90;;;17.50;93.00;;;;;;10492855;28;20412;-63
2023/09/01 07:53:12;;;;;;;4.20;3.20;;;17.50;93.30;;;;;;10495151;28;20424;-63
2023/09/01 07:58:13;;;;;;;4.13;3.40;;;17.50;93.10;;;;;;10491280;28;20899;-63
2023/09/01 08:03:13;;;;;;;5.03;3.80;;;17.60;93.10;;;;;;10496139;28;20407;-63
2023/09/01 08:08:14;;;;;;;4.83;3.50;;;17.60;93.10;;;;;;10492726;28;20409;-63
2023/09/01 08:13:15;;;;;;;6.03;3.80;;;17.60;93.10;;;;;;10494073;28;20406;-64
2023/09/01 08:18:16;;;;;;;4.43;3.47;;;17.60;93.10;;;;;;10499283;28;20410;-63
2023/09/01 08:23:21;;;;;;;4.65;3.70;;;17.70;93.10;;;;;;10500113;28;20411;-63
2023/09/01 08:28:21;;;;;;;5.13;3.63;;;17.70;93.10;;;;;;10489623;28;20391;-64
2023/09/01 08:33:22;;;;;;;3.90;3.50;;;17.70;93.00;;;;;;10492381;28;21140;-64
2023/09/01 08:38:23;;;;;;;4.80;3.80;;;17.70;93.10;;;;;;10497099;28;20546;-63
2023/09/01 08:43:23;;;;;;;5.20;3.90;;;17.70;93.00;;;;;;10485402;28;20942;-64
2023/09/01 08:48:24;;;;;;;6.97;4.03;;;17.80;93.10;;;;;;10492807;28;20404;-64
2023/09/01 08:53:25;;;;;;;6.00;4.23;;;17.80;93.10;;;;;;10497007;28;20489;-63
2023/09/01 08:58:26;;;;;;;5.68;4.15;;;17.70;93.10;;;;;;10496469;28;20920;-64
2023/09/01 09:03:27;;;;;;;4.87;3.80;;;17.80;93.10;;;;;;10496506;28;20431;-64
2023/09/01 09:08:27;;;;;;;5.07;4.00;;;17.80;93.00;;;;;;10481368;28;20400;-63
2023/09/01 09:13:30;;;;;;;5.30;4.07;;;17.90;93.10;;;;;;10474524;28;20569;-61
2023/09/01 09:18:31;;;;;;;5.88;4.20;;;17.90;93.10;;;;;;10490466;28;20398;-64
2023/09/01 09:23:45;;;;;;;5.40;4.30;;;18.00;93.00;;;;;;10480175;28;20401;-63
2023/09/01 09:28:48;;;;;;;5.93;4.40;;;18.00;93.00;;;;;;10484239;28;20478;-63
2023/09/01 09:33:50;;;;;;;5.20;4.45;;;18.00;93.00;;;;;;10490290;28;20498;-63
2023/09/01 09:38:53;;;;;;;6.03;3.97;;;18.00;93.00;;;;;;10482936;28;20428;-63
2023/09/01 09:43:53;;;;;;;5.28;4.28;;;18.10;93.00;;;;;;10485412;28;20402;-63
2023/09/01 09:48:56;;;;;;;5.25;4.10;;;18.10;93.00;;;;;;10486387;28;20386;-67
2023/09/01 09:53:58;;;;;;;6.38;4.10;;;18.10;93.00;;;;;;10482735;28;20406;-63
2023/09/01 09:59:03;;;;;;;4.88;4.15;;;18.10;93.10;;;;;;10471750;28;20860;-64
2023/09/01 10:04:05;;;;;;;5.43;3.80;;;18.20;93.10;;;;;;10481778;28;20458;-64
2023/09/01 10:09:07;;;;;;;5.47;4.20;;;18.20;93.10;;;;;;10479509;28;20403;-63
2023/09/01 10:14:09;;;;;;;5.07;4.00;;;18.20;93.00;;;;;;10477161;28;20494;-63
2023/09/01 10:19:13;;;;;;;5.00;4.20;;;18.20;93.00;;;;;;10480564;28;20399;-62
2023/09/01 10:24:16;;;;;;;5.28;4.00;;;18.20;93.10;;;;;;10485747;28;20445;-62
2023/09/01 10:29:31;;;;;;;4.97;3.90;;;18.70;93.10;;;;;;10490771;28;20403;-63
2023/09/01 10:34:32;;;;;;;6.00;3.97;;;18.30;93.00;;;;;;10488316;28;20479;-64
2023/09/01 10:39:34;;;;;;;4.68;3.88;;;18.30;93.00;;;;;;10488510;28;20797;-64
2023/09/01 10:44:42;;;;;;;5.10;4.00;;;18.30;93.00;;;;;;10490232;28;20835;-63
2023/09/01 10:49:55;;;;;;;4.97;4.03;;;18.30;93.00;;;;;;10487160;28;20406;-63
2023/09/01 10:55:05;;;;;;;5.50;4.00;;;18.30;93.00;;;;;;10487388;28;20537;-62
2023/09/01 11:00:28;;;;;;;6.07;4.60;;;18.40;93.10;;;;;;10495730;28;20426;-64
2023/09/01 11:05:37;;;;;;;5.88;4.22;;;18.40;93.20;;;;;;10488929;28;20496;-63
2023/09/01 11:10:38;;;;;;;5.78;4.20;;;18.40;93.20;;;;;;10495135;28;20897;-62
2023/09/01 11:15:45;;;;;;;5.20;4.30;;;18.40;93.10;;;;;;10492527;28;20473;-60
2023/09/01 11:20:55;;;;;;;5.87;4.23;;;18.50;93.10;;;;;;10491007;28;20396;-63
2023/09/01 11:25:57;;;;;;;5.65;3.78;;;18.50;93.10;;;;;;10486008;28;20443;-63
2023/09/01 11:31:03;;;;;;;5.47;4.00;;;18.50;93.00;;;;;;10493122;28;20814;-62
2023/09/01 11:36:04;;;;;;;4.95;4.10;;;18.60;93.00;;;;;;10490415;28;20907;-63
2023/09/01 11:41:11;;;;;;;5.03;4.40;;;18.60;93.00;;;;;;10486344;28;20400;-63
2023/09/01 11:46:13;;;;;;;7.20;4.60;;;18.60;93.10;;;;;;10489395;28;20400;-63
2023/09/01 11:51:13;;;;;;;5.10;3.90;;;18.70;93.10;;;;;;10492834;28;20846;-62
2023/09/01 11:56:24;;;;;;;5.33;4.37;;;18.70;93.00;;;;;;10484826;28;20415;-63
2023/09/01 12:01:34;;;;;;;5.95;4.22;;;18.80;93.00;;;;;;10497376;28;20730;-62
2023/09/01 12:06:46;;;;;;;5.73;4.37;;;18.80;93.00;;;;;;10491241;28;20475;-63
2023/09/01 12:12:00;;;;;;;5.93;4.13;;;18.80;93.10;;;;;;10483189;28;20484;-62
2023/09/01 12:17:03;;;;;;;5.10;4.05;;;18.90;93.10;;;;;;10489600;28;20479;-63
2023/09/01 12:22:04;;;;;;;5.57;4.30;;;18.90;93.10;;;;;;10489908;28;20403;-63
2023/09/01 12:27:05;;;;;;;5.80;4.13;;;18.90;93.10;;;;;;10489450;28;20926;-62
2023/09/01 12:32:06;;;;;;;5.10;4.13;;;18.90;93.10;;;;;;10497336;28;20766;-64
2023/09/01 12:37:07;;;;;;;6.10;4.07;;;19.00;93.00;;;;;;10489120;28;20403;-62
2023/09/01 12:42:08;;;;;;;6.10;4.30;;;19.00;93.00;;;;;;10495715;28;20406;-63
2023/09/01 12:47:08;;;;;;;6.05;4.18;;;19.20;93.00;;;;;;10487959;28;20821;-63
2023/09/01 12:52:09;;;;;;;5.32;4.10;;;19.30;92.90;;;;;;10491822;28;20448;-63
2023/09/01 12:57:09;;;;;;;4.90;4.28;;;19.40;92.90;;;;;;10488570;28;20915;-63
2023/09/01 13:02:10;;;;;;;5.25;4.28;;;19.40;92.70;;;;;;10495887;28;20451;-62
2023/09/01 13:07:11;;;;;;;6.25;3.90;;;19.40;92.80;;;;;;10493015;28;20414;-63
2023/09/01 13:12:12;;;;;;;8.57;4.27;;;19.40;92.80;;;;;;10490209;28;20510;-63
2023/09/01 13:17:13;;;;;;;5.15;4.20;;;19.40;92.90;;;;;;10498957;28;21048;-63
2023/09/01 13:22:14;;;;;;;4.80;4.00;;;19.40;93.00;;;;;;10501280;28;20390;-62
2023/09/01 13:27:14;;;;;;;6.00;4.27;;;19.40;93.00;;;;;;10498295;28;20919;-60
2023/09/01 13:32:15;;;;;;;5.77;3.90;;;19.60;93.10;;;;;;10489910;28;20393;-63
2023/09/01 13:37:17;;;;;;;5.73;4.00;;;19.60;93.20;;;;;;10488051;28;20778;-62
2023/09/01 13:42:17;;;;;;;5.30;3.72;;;19.50;93.20;;;;;;10495068;28;20405;-63
2023/09/01 13:47:18;;;;;;;4.68;3.88;;;19.60;93.20;;;;;;10490592;28;20403;-63
2023/09/01 13:52:19;;;;;;;5.43;4.00;;;19.60;93.20;;;;;;10491355;28;20575;-63
2023/09/01 13:57:21;;;;;;;5.53;3.75;;;19.60;93.10;;;;;;10487252;28;20551;-63
2023/09/01 14:02:21;;;;;;;6.23;4.43;;;19.70;93.20;;;;;;10492561;28;20497;-63
2023/09/01 14:07:22;;;;;;;5.07;3.90;;;19.70;93.30;;;;;;10496144;28;21907;-63
2023/09/01 14:12:22;;;;;;;5.13;3.67;;;19.70;93.50;;;;;;10493153;28;20860;-62
2023/09/01 14:17:23;;;;;;;5.00;3.90;;;19.70;93.00;;;;;;10502610;28;20925;-63
2023/09/01 14:22:24;;;;;;;6.45;4.07;;;19.30;92.90;;;;;;10506172;28;20886;-62
2023/09/01 14:27:24;;;;;;;4.60;3.70;;;19.70;93.10;;;;;;10505312;28;20767;-63
2023/09/01 14:32:25;;;;;;;5.53;4.00;;;19.70;93.00;;;;;;10501816;28;20415;-62
2023/09/01 14:37:25;;;;;;;6.30;4.10;;;19.60;93.00;;;;;;10497279;28;20441;-62
2023/09/01 14:42:26;;;;;;;5.28;4.03;;;19.60;93.10;;;;;;10486704;28;20411;-63
2023/09/01 14:47:27;;;;;;;5.50;4.00;;;19.60;93.10;;;;;;10499468;28;20394;-62
2023/09/01 14:52:27;;;;;;;5.13;4.13;;;19.80;93.10;;;;;;10507062;28;20406;-63
2023/09/01 14:57:28;;;;;;;5.10;4.17;;;19.70;93.20;;;;;;10503961;28;20406;-63
2023/09/01 15:02:29;;;;;;;4.80;4.07;;;19.70;93.20;;;;;;10504044;28;20404;-63
2023/09/01 15:07:30;;;;;;;4.30;3.90;;;19.70;93.20;;;;;;10500555;28;20390;-63
2023/09/01 15:12:30;;;;;;;5.47;4.07;;;19.70;93.10;;;;;;10496765;28;20927;-62
2023/09/01 15:17:31;;;;;;;5.53;4.15;;;19.70;93.10;;;;;;10505315;28;20402;-62
2023/09/01 15:22:32;;;;;;;5.13;4.00;;;19.70;93.10;;;;;;10498915;28;20837;-63
2023/09/01 15:27:32;;;;;;;6.53;3.90;;;19.80;93.20;;;;;;10503255;28;20825;-64
2023/09/01 15:32:33;;;;;;;4.93;3.90;;;19.70;93.10;;;;;;10502031;28;20412;-62
2023/09/01 15:37:33;;;;;;;6.33;4.27;;;19.80;93.10;;;;;;10503691;28;20864;-62
2023/09/01 15:42:34;;;;;;;5.13;4.03;;;19.80;93.10;;;;;;10495982;28;20435;-63
2023/09/01 15:47:35;;;;;;;4.70;4.10;;;19.80;93.10;;;;;;10498883;28;20846;-63
2023/09/01 15:52:35;;;;;;;5.83;4.13;;;19.80;93.20;;;;;;10498407;28;20409;-64
2023/09/01 15:57:36;;;;;;;5.37;4.20;;;19.80;93.20;;;;;;10495972;28;20426;-62
2023/09/01 16:02:37;;;;;;;5.53;4.33;;;19.80;93.40;;;;;;10498004;28;20435;-64
2023/09/01 16:07:37;;;;;;;5.37;4.50;;;19.70;93.40;;;;;;10501034;28;20471;-63
2023/09/01 16:12:39;;;;;;;5.67;4.77;;;19.70;93.70;;;;;;10502556;28;20700;-64
2023/09/01 16:17:40;;;;;;;5.32;4.60;;;19.70;93.50;;;;;;10495104;28;20414;-62
2023/09/01 16:22:41;;;;;;;5.80;4.90;;;19.80;93.60;;;;;;10493979;28;20382;-63
2023/09/01 16:27:42;;;;;;;6.40;4.50;;;19.80;93.60;;;;;;10485150;28;20926;-62
2023/09/01 16:32:42;;;;;;;9.73;4.90;;;19.80;93.50;;;;;;10485380;28;20411;-65
2023/09/01 16:37:44;;;;;;;6.83;4.73;;;19.80;93.70;;;;;;10492243;28;20917;-65
2023/09/01 16:42:45;;;;;;;8.18;5.43;;;19.70;93.70;;;;;;10485633;28;20417;-64
2023/09/01 16:47:45;;;;;;;6.40;4.90;;;19.80;93.70;;;;;;10489374;28;21055;-67
2023/09/01 16:52:46;;;;;;;9.23;5.80;;;19.80;93.80;;;;;;10484072;28;20406;-62
2023/09/01 16:57:47;;;;;;;7.37;5.50;;;19.70;94.00;;;;;;10485941;28;20471;-63
2023/09/01 17:02:47;;;;;;;7.67;5.00;;;19.80;94.00;;;;;;10491191;28;20490;-64
2023/09/01 17:07:48;;;;;;;6.13;5.10;;;19.80;94.10;;;;;;10482954;28;20743;-64
2023/09/01 17:12:48;;;;;;;7.00;5.43;;;19.70;94.10;;;;;;10475345;28;20403;-62
2023/09/01 17:17:49;;;;;;;6.83;5.43;;;19.70;94.10;;;;;;10485479;28;20906;-63
2023/09/01 17:22:50;;;;;;;8.03;5.10;;;20.30;94.20;;;;;;10486829;28;20410;-63
2023/09/01 17:27:50;;;;;;;5.87;5.23;;;19.70;94.10;;;;;;10488316;28;20408;-62
2023/09/01 17:32:51;;;;;;;8.73;5.40;;;19.70;94.10;;;;;;10486128;28;20415;-64
2023/09/01 17:37:54;;;;;;;5.53;4.80;;;19.70;94.20;;;;;;10490747;28;20489;-62
2023/09/01 17:42:54;;;;;;;6.60;5.20;;;19.70;94.20;;;;;;10483451;28;20485;-65
2023/09/01 17:47:55;;;;;;;6.13;4.90;;;19.70;94.20;;;;;;10482707;28;20394;-63
2023/09/01 17:52:55;;;;;;;6.33;5.23;;;19.70;94.10;;;;;;10488721;28;20403;-63
2023/09/01 17:57:57;;;;;;;7.87;6.37;;;19.60;94.30;;;;;;10487894;28;20952;-64
2023/09/01 18:02:58;;;;;;;6.82;5.45;;;19.60;94.30;;;;;;10488284;28;20492;-63
2023/09/01 18:08:02;;;;;;;6.60;5.40;;;19.60;94.20;;;;;;10480700;28;20814;-63
2023/09/01 18:13:03;;;;;;;6.70;5.60;;;19.60;94.30;;;;;;10482727;28;20391;-63
2023/09/01 18:18:04;;;;;;;6.35;5.28;;;19.60;94.30;;;;;;10481215;28;20408;-63
2023/09/01 18:23:05;;;;;;;5.70;5.10;;;19.60;94.30;;;;;;10490121;28;20500;-63
2023/09/01 18:28:06;;;;;;;7.88;6.55;;;19.60;94.40;;;;;;10486088;28;20400;-63
2023/09/01 18:33:07;;;;;;;12.37;9.07;;;19.60;94.50;;;;;;10479207;28;20411;-61
2023/09/01 18:38:16;;;;;;;8.43;6.03;;;19.50;94.60;;;;;;10486469;28;20924;-63
2023/09/01 18:43:17;;;;;;;6.90;6.20;;;19.50;94.70;;;;;;10473281;28;20437;-62
2023/09/01 18:48:22;;;;;;;6.10;5.50;;;19.50;94.70;;;;;;10482465;28;20391;-63
2023/09/01 18:53:24;;;;;;;6.77;5.80;;;19.50;94.80;;;;;;10483205;28;20392;-63
2023/09/01 18:58:25;;;;;;;8.57;6.70;;;19.40;94.80;;;;;;10490499;28;20468;-63
2023/09/01 19:03:26;;;;;;;6.63;5.93;;;19.40;94.80;;;;;;10490604;28;20464;-63
2023/09/01 19:08:30;;;;;;;8.23;6.17;;;19.40;94.80;;;;;;10489465;28;20496;-62
2023/09/01 19:13:31;;;;;;;8.37;6.17;;;19.40;94.90;;;;;;10491811;28;20409;-62
2023/09/01 19:18:40;;;;;;;6.80;6.10;;;19.40;94.90;;;;;;10496796;28;20456;-63
2023/09/01 19:23:42;;;;;;;7.47;6.57;;;19.40;95.00;;;;;;10483291;28;20938;-62
2023/09/01 19:28:44;;;;;;;7.43;6.22;;;19.40;95.10;;;;;;10489700;28;20399;-63
2023/09/01 19:34:05;;;;;;;8.65;6.70;;;19.30;95.10;;;;;;10495517;28;20631;-63
2023/09/01 19:39:06;;;;;;;7.60;6.80;;;19.30;95.10;;;;;;10489506;28;20414;-63
2023/09/01 19:44:10;;;;;;;8.60;6.73;;;19.30;95.10;;;;;;10486781;28;20406;-62
2023/09/01 19:49:13;;;;;;;7.68;6.80;;;19.30;95.20;;;;;;10490309;28;20401;-63
2023/09/01 19:54:17;;;;;;;7.57;6.60;;;19.30;95.20;;;;;;10498456;28;20462;-63
2023/09/01 19:59:18;;;;;;;10.75;8.35;;;19.30;95.20;;;;;;10496408;28;20657;-63
2023/09/01 20:04:20;;;;;;;9.03;7.83;;;19.30;95.20;;;;;;10485117;28;20485;-62
2023/09/01 20:09:23;;;;;;;9.15;7.75;;;19.30;95.30;;;;;;10491249;28;20441;-63
2023/09/01 20:14:24;;;;;;;8.95;7.45;;;19.30;95.30;;;;;;10476210;28;20446;-62
2023/09/01 20:19:27;;;;;;;9.47;8.00;;;19.20;95.30;;;;;;10482551;28;20481;-63
2023/09/01 20:24:28;;;;;;;10.10;8.15;;;19.30;95.30;;;;;;10487128;28;20494;-63
2023/09/01 20:29:29;;;;;;;8.98;7.95;;;19.20;95.30;;;;;;10491243;28;20411;-61
2023/09/01 20:34:29;;;;;;;8.40;6.90;;;19.20;95.30;;;;;;10486667;28;20578;-63
2023/09/01 20:39:34;;;;;;;8.23;7.03;;;19.20;95.30;;;;;;10486115;28;20641;-63
2023/09/01 20:44:34;;;;;;;9.18;7.93;;;19.20;95.30;;;;;;10475704;28;20977;-62
2023/09/01 20:49:35;;;;;;;8.97;8.03;;;19.20;95.40;;;;;;10486068;28;20398;-62
2023/09/01 20:54:36;;;;;;;11.00;8.80;;;18.80;95.30;;;;;;10482998;28;20417;-62
2023/09/01 20:59:36;;;;;;;8.23;7.23;;;19.20;95.40;;;;;;10487597;28;20529;-62
2023/09/01 21:04:37;;;;;;;11.20;8.33;;;19.20;95.50;;;;;;10483984;28;20407;-63
2023/09/01 21:09:37;;;;;;;10.47;8.73;;;19.10;95.40;;;;;;10488407;28;20448;-63
2023/09/01 21:14:38;;;;;;;11.93;10.50;;;19.10;95.50;;;;;;10485279;28;20408;-63
2023/09/01 21:19:39;;;;;;;9.27;7.77;;;19.10;95.50;;;;;;10476662;28;20384;-63
2023/09/01 21:24:40;;;;;;;9.60;8.10;;;19.10;95.60;;;;;;10485140;28;21053;-63
2023/09/01 21:29:41;;;;;;;11.47;9.40;;;19.10;95.70;;;;;;10485218;28;20415;-62
2023/09/01 21:34:42;;;;;;;12.00;9.70;;;19.10;95.70;;;;;;10486191;28;20404;-62
2023/09/01 21:39:43;;;;;;;10.27;8.93;;;19.10;95.80;;;;;;10478465;28;20403;-63
2023/09/01 21:44:44;;;;;;;10.35;9.00;;;19.10;95.80;;;;;;10486286;28;20393;-63
2023/09/01 21:49:45;;;;;;;10.67;8.50;;;19.10;95.80;;;;;;10483113;28;20410;-63
2023/09/01 21:54:45;;;;;;;10.40;8.27;;;19.10;95.90;;;;;;10477849;28;20907;-63
2023/09/01 21:59:47;;;;;;;11.00;8.97;;;19.10;95.90;;;;;;10484417;28;20412;-61
2023/09/01 22:04:48;;;;;;;11.05;8.77;;;19.10;96.00;;;;;;10475640;28;20417;-64
2023/09/01 22:09:49;;;;;;;10.98;8.65;;;19.10;96.00;;;;;;10482538;28;20756;-63
2023/09/01 22:14:50;;;;;;;11.02;8.98;;;19.00;96.00;;;;;;10482162;28;20907;-62
2023/09/01 22:19:51;;;;;;;10.77;9.07;;;19.10;96.10;;;;;;10484346;28;20916;-63
2023/09/01 22:24:51;;;;;;;11.50;9.23;;;19.00;96.10;;;;;;10480177;28;20471;-63
2023/09/01 22:29:52;;;;;;;11.90;9.37;;;19.00;96.00;;;;;;10486920;28;20410;-63
2023/09/01 22:34:52;;;;;;;11.90;9.10;;;19.00;96.00;;;;;;10487956;28;20871;-62
2023/09/01 22:39:53;;;;;;;11.77;9.17;;;18.60;96.20;;;;;;10497858;28;20395;-63
2023/09/01 22:44:54;;;;;;;11.33;9.23;;;19.00;96.10;;;;;;10484753;28;20394;-62
2023/09/01 22:49:54;;;;;;;11.90;9.73;;;19.00;96.10;;;;;;10489667;28;20405;-62
2023/09/01 22:54:55;;;;;;;11.90;9.80;;;19.10;96.10;;;;;;10489308;28;20420;-63
2023/09/01 22:59:55;;;;;;;12.67;9.47;;;19.00;96.10;;;;;;10492099;28;20828;-62
2023/09/01 23:04:56;;;;;;;11.80;9.18;;;18.90;96.10;;;;;;10498435;28;20398;-62
2023/09/01 23:09:57;;;;;;;12.13;9.40;;;18.90;96.10;;;;;;10491320;28;20398;-63
2023/09/01 23:14:57;;;;;;;12.13;9.10;;;19.00;96.10;;;;;;10489704;28;20437;-62
2023/09/01 23:19:58;;;;;;;11.10;9.37;;;18.90;96.10;;;;;;10492536;28;20480;-62
2023/09/01 23:24:59;;;;;;;11.47;9.13;;;18.90;96.10;;;;;;10508796;28;20473;-62
2023/09/01 23:30:00;;;;;;;11.77;9.53;;;18.90;96.10;;;;;;10496703;28;20407;-61
2023/09/01 23:35:06;;;;;;;12.40;9.00;;;18.90;96.10;;;;;;10497541;28;20418;-62
2023/09/01 23:40:11;;;;;;;11.07;8.60;;;18.90;96.10;;;;;;10494689;28;20481;-63
2023/09/01 23:45:11;;;;;;;10.50;8.70;;;18.90;96.10;;;;;;10491565;28;20400;-63
2023/09/01 23:50:12;;;;;;;10.73;8.73;;;18.90;96.00;;;;;;10491245;28;20405;-62
2023/09/01 23:55:13;;;;;;;12.37;9.20;;;18.90;96.10;;;;;;10495289;28;20930;-62
